createdAt,value
2019-05-11T00:00:23.626Z,44.86
2019-05-11T00:02:53.259Z,44.71
2019-05-11T00:05:22.855Z,45.51
2019-05-11T00:07:52.450Z,46.30
2019-05-11T00:10:23.696Z,46.56
2019-05-11T00:12:53.585Z,46.96
2019-05-11T00:15:23.179Z,46.46
2019-05-11T00:17:52.783Z,46.94
2019-05-11T00:20:22.402Z,47.01
2019-05-11T00:22:52.022Z,46.73
2019-05-11T00:25:21.664Z,46.72
2019-05-11T00:27:51.303Z,46.99
2019-05-11T00:30:21.011Z,46.52
2019-05-11T00:32:50.672Z,47.61
2019-05-11T00:35:20.290Z,47.62
2019-05-11T00:37:50.081Z,47.11
2019-05-11T00:40:19.794Z,47.83
2019-05-11T00:42:49.415Z,48.39
2019-05-11T00:45:19.112Z,48.53
2019-05-11T00:47:48.712Z,48.56
2019-05-11T00:50:18.533Z,49.48
2019-05-11T00:52:48.159Z,49.90
2019-05-11T00:55:17.802Z,49.52
2019-05-11T00:57:47.395Z,49.68
2019-05-11T01:00:17.200Z,49.27
2019-05-11T01:02:46.810Z,49.40
2019-05-11T01:05:16.469Z,49.17
2019-05-11T01:07:46.040Z,49.51
2019-05-11T01:10:25.640Z,48.99
2019-05-11T01:12:47.224Z,49.05
2019-05-11T01:15:17.446Z,48.96
2019-05-11T01:17:47.060Z,48.40
2019-05-11T01:20:18.641Z,48.47
2019-05-11T01:22:48.113Z,47.99
2019-05-11T01:25:17.806Z,47.95
2019-05-11T01:27:47.505Z,48.06
2019-05-11T01:30:17.610Z,48.72
2019-05-11T01:32:47.172Z,49.43
2019-05-11T01:35:16.988Z,49.67
2019-05-11T01:37:46.674Z,49.02
2019-05-11T01:40:16.519Z,49.01
2019-05-11T01:42:46.127Z,49.01
2019-05-11T01:45:15.701Z,48.97
2019-05-11T01:47:45.333Z,48.84
2019-05-11T01:50:15.052Z,48.54
2019-05-11T01:52:44.699Z,48.58
2019-05-11T01:55:14.326Z,49.38
2019-05-11T01:57:43.994Z,49.73
2019-05-11T02:00:13.791Z,49.39
2019-05-11T02:02:43.413Z,49.95
2019-05-11T02:05:29.117Z,49.64
2019-05-11T02:07:59.849Z,49.90
2019-05-11T02:10:29.683Z,49.59
2019-05-11T02:12:59.748Z,50.09
2019-05-11T02:15:29.478Z,49.47
2019-05-11T02:17:59.176Z,50.02
2019-05-11T02:20:28.917Z,50.16
2019-05-11T02:22:58.450Z,50.00
2019-05-11T02:25:28.067Z,50.63
2019-05-11T02:27:57.632Z,49.28
2019-05-11T02:30:27.290Z,50.29
2019-05-11T02:32:56.866Z,50.19
2019-05-11T02:35:26.514Z,49.58
2019-05-11T02:37:56.107Z,49.87
2019-05-11T02:40:25.809Z,50.20
2019-05-11T02:42:55.427Z,50.37
2019-05-11T02:45:38.566Z,50.04
2019-05-11T02:48:08.393Z,49.31
2019-05-11T02:50:39.513Z,50.20
2019-05-11T02:53:10.355Z,50.00
2019-05-11T02:55:40.195Z,49.59
2019-05-11T02:58:09.939Z,49.46
2019-05-11T03:00:41.683Z,49.36
2019-05-11T03:03:11.666Z,48.75
2019-05-11T03:05:41.251Z,49.28
2019-05-11T03:08:10.891Z,49.17
2019-05-11T03:10:40.477Z,49.16
2019-05-11T03:13:10.242Z,47.94
2019-05-11T03:15:39.873Z,48.79
2019-05-11T03:18:09.473Z,48.74
2019-05-11T03:20:39.089Z,48.62
2019-05-11T03:23:08.656Z,48.93
2019-05-11T03:25:38.275Z,48.78
2019-05-11T03:28:07.854Z,48.70
2019-05-11T03:30:37.544Z,48.53
2019-05-11T03:33:07.151Z,48.85
2019-05-11T03:35:36.746Z,47.76
2019-05-11T03:38:06.453Z,48.47
2019-05-11T03:40:36.014Z,48.36
2019-05-11T03:43:05.710Z,47.86
2019-05-11T03:45:35.350Z,48.33
2019-05-11T03:48:04.948Z,48.24
2019-05-11T03:50:34.553Z,48.50
2019-05-11T03:53:04.217Z,48.56
2019-05-11T03:55:33.805Z,48.87
2019-05-11T03:58:03.374Z,48.94
2019-05-11T04:00:33.024Z,49.93
2019-05-11T04:03:02.646Z,50.04
2019-05-11T04:05:32.289Z,50.44
2019-05-11T04:08:01.873Z,51.23
2019-05-11T04:10:31.459Z,49.40
2019-05-11T04:13:01.087Z,49.75
2019-05-11T04:15:30.674Z,49.95
2019-05-11T04:18:00.291Z,50.89
2019-05-11T04:20:30.069Z,50.37
2019-05-11T04:22:59.661Z,50.23
2019-05-11T04:25:29.268Z,49.97
2019-05-11T04:27:58.849Z,50.48
2019-05-11T04:30:28.454Z,50.16
2019-05-11T04:32:58.031Z,50.14
2019-05-11T04:35:27.613Z,50.01
2019-05-11T04:37:57.266Z,50.20
2019-05-11T04:40:26.919Z,50.35
2019-05-11T04:42:56.622Z,50.74
2019-05-11T04:45:26.188Z,50.37
2019-05-11T04:47:55.754Z,50.74
2019-05-11T04:50:25.467Z,51.36
2019-05-11T04:52:55.094Z,50.49
2019-05-11T04:55:24.709Z,49.50
2019-05-11T04:57:54.904Z,49.56
2019-05-11T05:00:24.703Z,48.93
2019-05-11T05:02:54.336Z,48.42
2019-05-11T05:05:23.927Z,46.96
2019-05-11T05:08:07.422Z,48.18
2019-05-11T05:10:24.942Z,47.79
2019-05-11T05:13:09.344Z,45.77
2019-05-11T05:15:25.884Z,46.40
2019-05-11T05:17:55.484Z,46.34
2019-05-11T05:20:25.064Z,45.85
2019-05-11T05:22:54.699Z,46.58
2019-05-11T05:25:24.309Z,46.58
2019-05-11T05:27:54.002Z,46.54
2019-05-11T05:30:23.636Z,45.07
2019-05-11T05:32:53.279Z,45.24
2019-05-11T05:35:22.906Z,46.96
2019-05-11T05:37:52.540Z,45.83
2019-05-11T05:40:22.170Z,46.36
2019-05-11T05:42:51.753Z,46.39
2019-05-11T05:45:21.334Z,47.22
2019-05-11T05:47:50.982Z,47.16
2019-05-11T05:50:20.761Z,47.21
2019-05-11T05:52:50.369Z,47.39
2019-05-11T05:55:19.971Z,47.50
2019-05-11T05:57:49.621Z,46.88
2019-05-11T06:00:19.577Z,47.40
2019-05-11T06:02:49.167Z,46.73
2019-05-11T06:05:18.750Z,47.53
2019-05-11T06:07:48.366Z,46.88
2019-05-11T06:10:18.170Z,47.06
2019-05-11T06:12:47.834Z,46.56
2019-05-11T06:15:17.658Z,47.94
2019-05-11T06:17:47.240Z,47.90
2019-05-11T06:20:17.719Z,48.51
2019-05-11T06:22:47.695Z,48.50
2019-05-11T06:25:17.383Z,47.09
2019-05-11T06:27:46.954Z,47.54
2019-05-11T06:30:16.646Z,47.23
2019-05-11T06:32:46.257Z,46.98
2019-05-11T06:35:16.035Z,46.82
2019-05-11T06:37:45.700Z,47.18
2019-05-11T06:40:15.434Z,48.61
2019-05-11T06:42:45.056Z,47.65
2019-05-11T06:45:14.732Z,46.51
2019-05-11T06:47:44.359Z,47.37
2019-05-11T06:50:14.226Z,45.33
2019-05-11T06:52:43.822Z,45.13
2019-05-11T06:55:13.542Z,44.92
2019-05-11T06:57:43.149Z,44.78
2019-05-11T07:00:13.423Z,44.02
2019-05-11T07:02:43.230Z,44.42
2019-05-11T07:05:12.966Z,44.06
2019-05-11T07:07:47.585Z,44.36
2019-05-11T07:10:14.077Z,44.16
2019-05-11T07:12:56.907Z,43.91
2019-05-11T07:15:20.375Z,44.26
2019-05-11T07:17:49.968Z,43.90
2019-05-11T07:20:19.553Z,42.52
2019-05-11T07:22:49.146Z,41.56
2019-05-11T07:25:18.717Z,42.36
2019-05-11T07:27:48.320Z,41.14
2019-05-11T07:30:17.918Z,39.42
2019-05-11T07:32:48.191Z,39.65
2019-05-11T07:35:18.770Z,38.68
2019-05-11T07:37:48.617Z,40.39
2019-05-11T07:40:18.919Z,40.74
2019-05-11T07:42:48.813Z,41.03
2019-05-11T07:45:18.826Z,41.88
2019-05-11T07:47:48.750Z,41.00
2019-05-11T07:50:18.511Z,41.52
2019-05-11T07:52:48.468Z,42.04
2019-05-11T07:55:19.140Z,39.86
2019-05-11T07:57:48.907Z,40.10
2019-05-11T08:00:18.978Z,40.69
2019-05-11T08:02:48.655Z,39.67
2019-05-11T08:05:18.298Z,37.76
2019-05-11T08:07:48.317Z,39.19
2019-05-11T08:10:18.687Z,38.67
2019-05-11T08:12:48.523Z,39.20
2019-05-11T08:15:18.694Z,40.17
2019-05-11T08:17:49.001Z,39.27
2019-05-11T08:20:18.987Z,39.64
2019-05-11T08:22:48.564Z,38.20
2019-05-11T08:25:18.450Z,38.41
2019-05-11T08:27:48.667Z,37.19
2019-05-11T08:30:18.964Z,36.40
2019-05-11T08:32:49.458Z,36.53
2019-05-11T08:35:19.613Z,35.09
2019-05-11T08:37:49.318Z,37.79
2019-05-11T08:40:20.038Z,36.81
2019-05-11T08:42:49.761Z,37.21
2019-05-11T08:45:24.016Z,37.79
2019-05-11T08:47:50.912Z,38.82
2019-05-11T08:50:20.749Z,36.44
2019-05-11T08:52:50.423Z,35.27
2019-05-11T08:55:20.450Z,35.48
2019-05-11T08:57:50.202Z,36.15
2019-05-11T09:00:20.175Z,35.07
2019-05-11T09:02:50.982Z,34.44
2019-05-11T09:05:20.797Z,34.51
2019-05-11T09:07:50.540Z,33.05
2019-05-11T09:10:20.179Z,34.88
2019-05-11T09:12:49.809Z,35.41
2019-05-11T09:15:32.397Z,36.68
2019-05-11T09:17:50.912Z,36.06
2019-05-11T09:20:20.673Z,35.87
2019-05-11T09:22:50.294Z,34.24
2019-05-11T09:25:19.908Z,33.66
2019-05-11T09:27:49.558Z,31.21
2019-05-11T09:30:19.405Z,31.69
2019-05-11T09:32:49.213Z,32.71
2019-05-11T09:35:19.196Z,32.06
2019-05-11T09:37:48.839Z,32.48
2019-05-11T09:40:18.972Z,33.28
2019-05-11T09:42:48.754Z,31.56
2019-05-11T09:45:18.962Z,32.52
2019-05-11T09:47:48.700Z,33.50
2019-05-11T09:50:18.456Z,30.69
2019-05-11T09:52:49.049Z,31.21
2019-05-11T09:55:19.306Z,29.70
2019-05-11T09:57:49.168Z,30.03
2019-05-11T10:00:19.027Z,31.86
2019-05-11T10:02:48.973Z,31.47
2019-05-11T10:05:19.138Z,31.89
2019-05-11T10:07:48.841Z,31.90
2019-05-11T10:10:19.003Z,29.61
2019-05-11T10:12:52.345Z,30.70
2019-05-11T10:15:20.289Z,29.89
2019-05-11T10:17:50.137Z,30.27
2019-05-11T10:20:19.759Z,29.70
2019-05-11T10:22:49.436Z,29.77
2019-05-11T10:25:19.166Z,28.55
2019-05-11T10:27:49.190Z,28.35
2019-05-11T10:30:19.901Z,30.40
2019-05-11T10:32:49.614Z,28.64
2019-05-11T10:35:19.290Z,28.97
2019-05-11T10:37:48.985Z,28.53
2019-05-11T10:40:19.166Z,27.66
2019-05-11T10:42:48.923Z,28.90
2019-05-11T10:45:18.690Z,28.34
2019-05-11T10:47:49.089Z,27.69
2019-05-11T10:50:19.142Z,27.84
2019-05-11T10:52:48.748Z,28.80
2019-05-11T10:55:19.276Z,28.46
2019-05-11T10:57:49.310Z,28.11
2019-05-11T11:00:19.601Z,27.25
2019-05-11T11:02:49.222Z,28.30
2019-05-11T11:05:19.160Z,29.19
2019-05-11T11:07:48.920Z,28.71
2019-05-11T11:10:18.811Z,29.23
2019-05-11T11:12:49.121Z,29.47
2019-05-11T11:15:19.132Z,29.70
2019-05-11T11:17:48.859Z,30.01
2019-05-11T11:20:18.880Z,29.11
2019-05-11T11:22:48.712Z,28.84
2019-05-11T11:25:19.888Z,29.00
2019-05-11T11:27:49.491Z,29.46
2019-05-11T11:30:20.232Z,29.02
2019-05-11T11:32:50.143Z,28.93
2019-05-11T11:35:20.269Z,29.67
2019-05-11T11:37:49.984Z,29.33
2019-05-11T11:40:19.710Z,26.83
2019-05-11T11:42:49.352Z,27.52
2019-05-11T11:45:19.074Z,27.43
2019-05-11T11:47:49.475Z,28.12
2019-05-11T11:50:19.431Z,27.41
2019-05-11T11:52:49.058Z,26.80
2019-05-11T11:55:18.906Z,27.12
2019-05-11T11:57:50.304Z,26.25
2019-05-11T12:00:20.438Z,26.25
2019-05-11T12:02:50.099Z,26.05
2019-05-11T12:05:19.790Z,26.70
2019-05-11T12:07:49.432Z,26.70
2019-05-11T12:10:19.307Z,27.62
2019-05-11T12:12:48.887Z,27.62
2019-05-11T12:15:18.635Z,26.36
2019-05-11T12:17:48.531Z,28.33
2019-05-11T12:20:18.503Z,27.57
2019-05-11T12:22:48.193Z,26.64
2019-05-11T12:25:18.611Z,25.61
2019-05-11T12:27:49.163Z,25.53
2019-05-11T12:30:19.250Z,25.78
2019-05-11T12:32:50.186Z,26.69
2019-05-11T12:35:20.472Z,26.13
2019-05-11T12:37:50.130Z,25.78
2019-05-11T12:40:20.066Z,26.69
2019-05-11T12:42:49.660Z,26.30
2019-05-11T12:45:19.460Z,25.82
2019-05-11T12:47:49.094Z,26.33
2019-05-11T12:50:18.908Z,27.01
2019-05-11T12:52:48.692Z,27.29
2019-05-11T12:55:19.958Z,26.00
2019-05-11T12:57:49.601Z,26.56
2019-05-11T13:00:20.344Z,26.10
2019-05-11T13:02:49.982Z,25.35
2019-05-11T13:05:19.740Z,25.90
2019-05-11T13:07:49.362Z,26.60
2019-05-11T13:10:19.284Z,26.05
2019-05-11T13:12:49.438Z,25.25
2019-05-11T13:15:20.217Z,25.76
2019-05-11T13:17:49.896Z,25.73
2019-05-11T13:20:19.609Z,26.11
2019-05-11T13:22:49.220Z,25.42
2019-05-11T13:25:18.855Z,25.61
2019-05-11T13:27:49.236Z,25.94
2019-05-11T13:30:19.362Z,25.46
2019-05-11T13:32:49.349Z,24.80
2019-05-11T13:35:20.291Z,25.92
2019-05-11T13:37:49.906Z,24.29
2019-05-11T13:40:19.701Z,25.00
2019-05-11T13:42:49.386Z,25.20
2019-05-11T13:45:19.112Z,25.59
2019-05-11T13:47:54.673Z,25.80
2019-05-11T13:50:21.021Z,24.82
2019-05-11T13:52:50.622Z,25.03
2019-05-11T13:55:20.279Z,25.15
2019-05-11T13:57:49.877Z,25.05
2019-05-11T14:00:19.615Z,24.56
2019-05-11T14:02:49.704Z,26.01
2019-05-11T14:05:19.425Z,25.51
2019-05-11T14:07:49.069Z,25.60
2019-05-11T14:10:18.784Z,25.56
2019-05-11T14:12:48.383Z,23.73
2019-05-11T14:15:18.775Z,24.97
2019-05-11T14:18:03.529Z,24.60
2019-05-11T14:20:20.554Z,24.81
2019-05-11T14:22:50.167Z,24.22
2019-05-11T14:25:19.840Z,25.17
2019-05-11T14:27:49.508Z,26.04
2019-05-11T14:30:19.332Z,25.48
2019-05-11T14:32:51.098Z,25.87
2019-05-11T14:35:20.693Z,25.12
2019-05-11T14:37:50.301Z,25.25
2019-05-11T14:40:19.923Z,26.28
2019-05-11T14:42:49.558Z,25.30
2019-05-11T14:45:19.287Z,25.40
2019-05-11T14:47:48.900Z,25.04
2019-05-11T14:50:19.013Z,24.45
2019-05-11T14:52:49.234Z,26.09
2019-05-11T14:55:18.975Z,25.55
2019-05-11T14:57:48.929Z,24.26
2019-05-11T15:00:18.931Z,24.26
2019-05-11T15:02:49.844Z,24.91
2019-05-11T15:05:20.950Z,24.99
2019-05-11T15:07:52.897Z,24.67
2019-05-11T15:10:23.723Z,24.05
2019-05-11T15:12:53.319Z,24.32
2019-05-11T15:15:23.681Z,23.84
2019-05-11T15:17:53.317Z,23.63
2019-05-11T15:20:22.931Z,24.11
2019-05-11T15:22:52.579Z,24.64
2019-05-11T15:25:22.402Z,24.79
2019-05-11T15:27:52.016Z,23.98
2019-05-11T15:30:22.855Z,24.49
2019-05-11T15:32:52.467Z,25.37
2019-05-11T15:35:22.194Z,26.32
2019-05-11T15:37:51.935Z,25.47
2019-05-11T15:40:23.054Z,25.11
2019-05-11T15:42:52.832Z,25.60
2019-05-11T15:45:22.534Z,27.83
2019-05-11T15:47:52.285Z,26.29
2019-05-11T15:50:22.504Z,25.95
2019-05-11T15:52:52.131Z,26.05
2019-05-11T15:55:21.929Z,26.37
2019-05-11T15:57:51.533Z,24.96
2019-05-11T16:00:22.992Z,25.78
2019-05-11T16:02:52.603Z,26.78
2019-05-11T16:05:22.308Z,26.46
2019-05-11T16:07:51.953Z,25.86
2019-05-11T16:10:21.563Z,26.13
2019-05-11T16:12:51.243Z,26.20
2019-05-11T16:15:20.940Z,26.59
2019-05-11T16:17:50.975Z,26.84
2019-05-11T16:20:20.675Z,26.08
2019-05-11T16:22:50.283Z,26.18
2019-05-11T16:25:20.314Z,26.85
2019-05-11T16:27:50.174Z,27.44
2019-05-11T16:30:21.754Z,27.13
2019-05-11T16:32:51.586Z,27.51
2019-05-11T16:35:21.400Z,27.76
2019-05-11T16:37:50.985Z,26.92
2019-05-11T16:40:21.261Z,25.61
2019-05-11T16:42:51.072Z,26.51
2019-05-11T16:45:23.837Z,25.89
2019-05-11T16:47:52.173Z,26.58
2019-05-11T16:50:21.793Z,26.95
2019-05-11T16:52:51.411Z,26.38
2019-05-11T16:55:21.011Z,26.18
2019-05-11T16:57:50.631Z,26.74
2019-05-11T17:00:20.515Z,26.28
2019-05-11T17:02:50.111Z,27.59
2019-05-11T17:05:26.667Z,27.62
2019-05-11T17:07:51.031Z,29.31
2019-05-11T17:10:20.940Z,29.16
2019-05-11T17:12:50.568Z,29.91
2019-05-11T17:15:20.254Z,29.88
2019-05-11T17:17:49.935Z,31.38
2019-05-11T17:20:19.634Z,31.60
2019-05-11T17:22:49.393Z,31.50
2019-05-11T17:25:19.640Z,32.17
2019-05-11T17:27:49.514Z,33.58
2019-05-11T17:30:19.935Z,33.57
2019-05-11T17:32:50.227Z,33.65
2019-05-11T17:35:20.072Z,32.92
2019-05-11T17:37:49.707Z,31.94
2019-05-11T17:40:23.368Z,31.45
2019-05-11T17:42:53.853Z,31.86
2019-05-11T17:45:23.903Z,33.64
2019-05-11T17:47:54.379Z,33.64
2019-05-11T17:50:28.768Z,32.71
2019-05-11T17:52:59.028Z,32.19
2019-05-11T17:55:30.003Z,31.63
2019-05-11T17:58:01.247Z,31.27
2019-05-11T18:00:32.328Z,32.05
2019-05-11T18:03:01.976Z,32.48
2019-05-11T18:05:31.670Z,32.48
2019-05-11T18:08:01.441Z,32.66
2019-05-11T18:10:31.087Z,32.87
2019-05-11T18:13:04.014Z,32.64
2019-05-11T18:15:32.620Z,32.28
2019-05-11T18:18:02.359Z,32.09
2019-05-11T18:20:32.340Z,32.88
2019-05-11T18:23:02.040Z,33.62
2019-05-11T18:25:31.767Z,33.41
2019-05-11T18:28:01.525Z,33.47
2019-05-11T18:30:31.259Z,33.32
2019-05-11T18:33:00.958Z,33.18
2019-05-11T18:35:30.579Z,34.05
2019-05-11T18:38:00.261Z,33.16
2019-05-11T18:40:29.894Z,33.53
2019-05-11T18:42:59.573Z,32.57
2019-05-11T18:45:29.285Z,32.11
2019-05-11T18:47:58.948Z,32.18
2019-05-11T18:50:31.049Z,32.24
2019-05-11T18:53:00.344Z,32.41
2019-05-11T18:55:30.295Z,32.26
2019-05-11T18:58:00.092Z,32.04
2019-05-11T19:00:29.790Z,32.07
2019-05-11T19:02:59.436Z,32.80
2019-05-11T19:05:29.323Z,34.21
2019-05-11T19:07:59.083Z,35.31
2019-05-11T19:10:28.861Z,35.95
2019-05-11T19:12:59.059Z,35.93
2019-05-11T19:15:29.211Z,35.04
2019-05-11T19:17:58.910Z,35.46
2019-05-11T19:20:28.570Z,35.30
2019-05-11T19:22:58.987Z,35.50
2019-05-11T19:25:28.898Z,35.68
2019-05-11T19:27:59.028Z,36.27
2019-05-11T19:30:28.912Z,36.36
2019-05-11T19:32:59.091Z,36.74
2019-05-11T19:35:28.911Z,36.71
2019-05-11T19:37:58.636Z,36.28
2019-05-11T19:40:28.387Z,36.26
2019-05-11T19:42:59.040Z,36.36
2019-05-11T19:45:29.642Z,35.95
2019-05-11T19:47:59.309Z,35.62
2019-05-11T19:50:28.901Z,35.66
2019-05-11T19:52:58.703Z,35.77
2019-05-11T19:55:28.737Z,35.97
2019-05-11T19:57:58.594Z,35.54
2019-05-11T20:00:28.564Z,35.71
2019-05-11T20:02:58.714Z,35.97
2019-05-11T20:05:29.050Z,36.75
2019-05-11T20:07:59.071Z,44.03
2019-05-11T20:10:28.813Z,36.90
2019-05-11T20:12:58.967Z,37.66
2019-05-11T20:15:29.708Z,39.44
2019-05-11T20:18:07.939Z,39.95
2019-05-11T20:20:38.259Z,38.41
2019-05-11T20:23:07.996Z,39.13
2019-05-11T20:25:38.091Z,42.11
2019-05-11T20:28:08.000Z,41.11
2019-05-11T20:30:37.715Z,41.29
2019-05-11T20:33:08.711Z,42.74
2019-05-11T20:35:38.501Z,42.93
2019-05-11T20:38:08.620Z,42.48
2019-05-11T20:40:38.411Z,43.09
2019-05-11T20:43:08.116Z,42.31
2019-05-11T20:45:40.222Z,44.58
2019-05-11T20:48:12.367Z,42.92
2019-05-11T20:50:48.175Z,42.21
2019-05-11T20:53:18.209Z,41.87
2019-05-11T20:55:49.977Z,42.20
2019-05-11T20:58:19.827Z,41.23
2019-05-11T21:00:50.300Z,40.56
2019-05-11T21:03:22.830Z,40.30
2019-05-11T21:05:59.050Z,40.13
2019-05-11T21:08:29.264Z,39.43
2019-05-11T21:10:59.446Z,39.11
2019-05-11T21:13:29.558Z,39.32
2019-05-11T21:16:00.270Z,39.21
2019-05-11T21:18:30.010Z,39.06
2019-05-11T21:20:59.694Z,38.32
2019-05-11T21:23:29.544Z,38.87
2019-05-11T21:25:59.743Z,38.46
2019-05-11T21:28:30.695Z,38.76
2019-05-11T21:31:00.867Z,38.98
2019-05-11T21:33:30.518Z,41.26
2019-05-11T21:36:00.718Z,40.75
2019-05-11T21:38:31.817Z,39.86
2019-05-11T21:41:01.629Z,39.35
2019-05-11T21:43:31.308Z,40.05
2019-05-11T21:46:01.401Z,40.02
2019-05-11T21:48:31.110Z,42.25
2019-05-11T21:51:00.765Z,41.66
2019-05-11T21:53:30.384Z,41.58
2019-05-11T21:56:00.033Z,41.51
2019-05-11T21:58:29.630Z,40.94
2019-05-11T22:00:59.341Z,41.26
2019-05-11T22:03:28.967Z,44.03
2019-05-11T22:05:58.570Z,44.08
2019-05-11T22:08:28.464Z,42.65
2019-05-11T22:11:00.027Z,42.31
2019-05-11T22:13:29.495Z,43.40
2019-05-11T22:15:59.105Z,43.30
2019-05-11T22:18:31.362Z,43.47
2019-05-11T22:21:00.199Z,44.01
2019-05-11T22:23:29.839Z,44.37
2019-05-11T22:25:59.419Z,45.18
2019-05-11T22:28:29.066Z,47.16
2019-05-11T22:30:58.659Z,48.24
2019-05-11T22:33:28.496Z,50.61
2019-05-11T22:35:58.845Z,51.24
2019-05-11T22:38:30.253Z,52.52
2019-05-11T22:40:59.985Z,53.89
2019-05-11T22:43:29.658Z,55.78
2019-05-11T22:45:59.301Z,59.08
2019-05-11T22:48:28.907Z,58.59
2019-05-11T22:50:58.726Z,58.54
2019-05-11T22:53:43.343Z,57.75
2019-05-11T22:55:59.719Z,56.81
2019-05-11T22:58:29.425Z,57.46
2019-05-11T23:00:59.757Z,57.25
2019-05-11T23:03:29.497Z,57.63
2019-05-11T23:05:59.129Z,58.39
2019-05-11T23:08:28.823Z,58.66
2019-05-11T23:10:58.543Z,58.38
2019-05-11T23:13:28.168Z,58.19
2019-05-11T23:15:58.417Z,58.07
2019-05-11T23:18:28.768Z,58.45
2019-05-11T23:20:58.495Z,58.50
2019-05-11T23:23:28.995Z,58.43
2019-05-11T23:25:58.597Z,58.67
2019-05-11T23:28:28.942Z,57.52
2019-05-11T23:30:58.637Z,57.12
2019-05-11T23:33:28.236Z,58.78
2019-05-11T23:35:58.760Z,57.36
2019-05-11T23:38:28.508Z,58.16
2019-05-11T23:40:58.704Z,57.75
2019-05-11T23:43:30.103Z,57.36
2019-05-11T23:45:59.774Z,56.70
2019-05-11T23:48:29.514Z,55.74
2019-05-11T23:50:59.133Z,55.17
2019-05-11T23:53:28.719Z,55.53
2019-05-11T23:55:58.368Z,55.90
2019-05-11T23:58:28.334Z,56.46
